Packwood, WA

10:09 AM PDT on August 27, 2014 (GMT -0700)
Stampede Pass | Change Station
CLOSE
Current Station
Airport
Location: Stampede Pass,
Elevation: 3967 ft
Nearby Weather Stations

Elev 3967 ft 47.28 °N, 121.34 °W | Updated 22 hours ago

Partly Cloudy
Partly Cloudy
77 °F
Feels Like 77 °F
N
2
Wind Variable Wind from NNW
Gusts 2 mph

Today
High -- | Low -- °F
--% Chance of Precip.
Yesterday
High -- | Low -- °F
Precip. -- in
6:20 AM 7:55 PM
Waxing Crescent, 4% visible
Pressure 30.11 in
Visibility 10.0 miles
Clouds Clear
Dew Point 61 °F
Humidity 57%
Rainfall 0.00 in
Snow Depth 0 in , 0 in
UV 8 out of 12
Pollen 4.80 out of 12
Air Quality Not available.
Flu Activity Not available.
METAR KSMP 261856Z AUTO VRB05KT 10SM CLR 21/07 A3018 RMK AO2 SLP195 T02060067 $

More Conditions Fewer Conditions

Pressure 30.11 in
Visibility 10.0 miles
Clouds Clear
Dew Point 61 °F
Humidity 57%
Rainfall 0.00 in
Snow Depth 0 in , 0 in
UV 8 out of 12
Pollen 4.80 out of 12
Air Quality Not available.
Flu Activity Not available.
METAR KSMP 261856Z AUTO VRB05KT 10SM CLR 21/07 A3018 RMK AO2 SLP195 T02060067 $

More Conditions Fewer Conditions

10-Day Weather Forecast

Almanac

Astronomy

Aug. 27, 2014 Rise Set
Actual Time 6:20 AM PDT 7:55 PM PDT
Civil Twilight 5:48 AM PDT 8:26 PM PDT
Nautical Twilight 5:09 AM PDT 9:05 PM PDT
Astronomical Twilight 4:27 AM PDT 9:46 PM PDT
Moon 8:31 AM PDT 8:38 PM PDT
Length of Visible Light 14h 38m
Length of Day
13h 34m
Tomorrow will be 3m 10s shorter.
Waxing Crescent, 4% of the Moon is Illuminated
Today
Waxing Crescent
Sep 2
First Quarter
Sep 8
Full
Sep 15
Last Quarter
Sep 24
New

Today's Extremes

State Highs State Lows

Community

WunderPhotos

Upload Photos

1,747,727 photos uploaded!

Nearby

Snow Depth

Station Depth Elevation
Pigtail Peak 0 in 5900 ft
White Pass E.S. 0 in 4500 ft
Morse Lake 0 in 5400 ft
Green Lake 0 in 6000 ft
Potato Hill 0 in 4500 ft

Earthquake Activity

City Distance Mag. Time & Date
No recent earthquake activity has been reported nearby.
Minimum magnitude displayed is 2.5.

Coastal Water Temperatures

Place Temperature
No Stations Reporting

Nearby Weather Stations